sensor_id;sensor_type;location;lat;lon;timestamp;P1;durP1;ratioP1;P2;durP2;ratioP2
10341;SDS011;5216;54.602;18.356;2022-10-30T00:01:37;6.17;;;2.30;;
10341;SDS011;5216;54.602;18.356;2022-10-30T00:04:04;5.33;;;2.70;;
10341;SDS011;5216;54.602;18.356;2022-10-30T00:06:30;7.00;;;2.90;;
10341;SDS011;5216;54.602;18.356;2022-10-30T00:08:57;5.20;;;2.57;;
10341;SDS011;5216;54.602;18.356;2022-10-30T00:11:23;7.60;;;2.90;;
10341;SDS011;5216;54.602;18.356;2022-10-30T00:13:50;4.93;;;2.67;;
10341;SDS011;5216;54.602;18.356;2022-10-30T00:16:16;5.67;;;2.47;;
10341;SDS011;5216;54.602;18.356;2022-10-30T00:18:43;6.17;;;2.60;;
10341;SDS011;5216;54.602;18.356;2022-10-30T00:21:11;6.27;;;2.77;;
10341;SDS011;5216;54.602;18.356;2022-10-30T00:23:38;5.57;;;2.70;;
10341;SDS011;5216;54.602;18.356;2022-10-30T00:26:05;3.93;;;2.37;;
10341;SDS011;5216;54.602;18.356;2022-10-30T00:28:32;5.70;;;2.23;;
10341;SDS011;5216;54.602;18.356;2022-10-30T00:31:02;4.97;;;2.07;;
10341;SDS011;5216;54.602;18.356;2022-10-30T00:33:29;6.20;;;2.33;;
10341;SDS011;5216;54.602;18.356;2022-10-30T00:35:55;5.43;;;2.20;;
10341;SDS011;5216;54.602;18.356;2022-10-30T00:38:22;4.53;;;2.50;;
10341;SDS011;5216;54.602;18.356;2022-10-30T00:40:48;6.83;;;2.70;;
10341;SDS011;5216;54.602;18.356;2022-10-30T00:43:35;6.07;;;2.60;;
10341;SDS011;5216;54.602;18.356;2022-10-30T00:48:31;6.07;;;3.03;;
10341;SDS011;5216;54.602;18.356;2022-10-30T00:50:58;4.77;;;2.60;;
10341;SDS011;5216;54.602;18.356;2022-10-30T00:53:26;5.77;;;3.03;;
10341;SDS011;5216;54.602;18.356;2022-10-30T00:55:57;5.13;;;2.90;;
10341;SDS011;5216;54.602;18.356;2022-10-30T00:58:28;7.13;;;2.80;;
10341;SDS011;5216;54.602;18.356;2022-10-30T01:00:56;6.00;;;2.57;;
10341;SDS011;5216;54.602;18.356;2022-10-30T01:03:23;6.13;;;2.70;;
10341;SDS011;5216;54.602;18.356;2022-10-30T01:05:53;6.43;;;2.90;;
10341;SDS011;5216;54.602;18.356;2022-10-30T01:08:20;3.93;;;2.50;;
10341;SDS011;5216;54.602;18.356;2022-10-30T01:10:47;6.00;;;2.50;;
10341;SDS011;5216;54.602;18.356;2022-10-30T01:13:14;5.90;;;2.20;;
10341;SDS011;5216;54.602;18.356;2022-10-30T01:15:50;7.53;;;2.50;;
10341;SDS011;5216;54.602;18.356;2022-10-30T01:18:26;5.27;;;2.43;;
10341;SDS011;5216;54.602;18.356;2022-10-30T01:21:04;6.53;;;2.10;;
10341;SDS011;5216;54.602;18.356;2022-10-30T01:26:22;4.27;;;2.10;;
10341;SDS011;5216;54.602;18.356;2022-10-30T01:28:58;4.13;;;1.93;;
10341;SDS011;5216;54.602;18.356;2022-10-30T01:31:34;5.23;;;1.90;;
10341;SDS011;5216;54.602;18.356;2022-10-30T01:34:16;4.13;;;2.40;;
10341;SDS011;5216;54.602;18.356;2022-10-30T01:36:45;3.43;;;2.30;;
10341;SDS011;5216;54.602;18.356;2022-10-30T01:39:17;5.77;;;2.30;;
10341;SDS011;5216;54.602;18.356;2022-10-30T01:41:44;5.50;;;2.67;;
10341;SDS011;5216;54.602;18.356;2022-10-30T01:44:15;4.97;;;2.37;;
10341;SDS011;5216;54.602;18.356;2022-10-30T01:46:48;8.17;;;2.57;;
10341;SDS011;5216;54.602;18.356;2022-10-30T01:52:07;6.83;;;2.73;;
10341;SDS011;5216;54.602;18.356;2022-10-30T01:54:44;4.47;;;2.40;;
10341;SDS011;5216;54.602;18.356;2022-10-30T01:59:40;7.60;;;2.90;;
10341;SDS011;5216;54.602;18.356;2022-10-30T02:02:08;6.33;;;2.80;;
10341;SDS011;5216;54.602;18.356;2022-10-30T02:04:35;6.63;;;2.83;;
10341;SDS011;5216;54.602;18.356;2022-10-30T02:07:02;6.90;;;2.60;;
10341;SDS011;5216;54.602;18.356;2022-10-30T02:09:29;7.30;;;2.67;;
10341;SDS011;5216;54.602;18.356;2022-10-30T02:11:55;6.00;;;2.60;;
10341;SDS011;5216;54.602;18.356;2022-10-30T02:14:23;4.53;;;2.47;;
10341;SDS011;5216;54.602;18.356;2022-10-30T02:16:52;5.33;;;2.57;;
10341;SDS011;5216;54.602;18.356;2022-10-30T02:19:20;4.10;;;2.40;;
10341;SDS011;5216;54.602;18.356;2022-10-30T02:21:46;4.83;;;2.30;;
10341;SDS011;5216;54.602;18.356;2022-10-30T02:24:13;5.60;;;2.37;;
10341;SDS011;5216;54.602;18.356;2022-10-30T02:26:40;4.60;;;2.60;;
10341;SDS011;5216;54.602;18.356;2022-10-30T02:29:06;6.90;;;2.80;;
10341;SDS011;5216;54.602;18.356;2022-10-30T02:31:33;8.67;;;3.10;;
10341;SDS011;5216;54.602;18.356;2022-10-30T02:33:59;5.53;;;2.70;;
10341;SDS011;5216;54.602;18.356;2022-10-30T02:36:26;5.33;;;2.33;;
10341;SDS011;5216;54.602;18.356;2022-10-30T02:38:52;6.17;;;2.63;;
10341;SDS011;5216;54.602;18.356;2022-10-30T02:41:23;5.40;;;2.47;;
10341;SDS011;5216;54.602;18.356;2022-10-30T02:43:50;6.17;;;2.87;;
10341;SDS011;5216;54.602;18.356;2022-10-30T02:46:17;6.43;;;2.60;;
10341;SDS011;5216;54.602;18.356;2022-10-30T02:48:44;4.47;;;2.47;;
10341;SDS011;5216;54.602;18.356;2022-10-30T02:51:10;4.37;;;2.13;;
10341;SDS011;5216;54.602;18.356;2022-10-30T02:53:37;7.07;;;2.53;;
10341;SDS011;5216;54.602;18.356;2022-10-30T02:56:04;5.03;;;2.33;;
10341;SDS011;5216;54.602;18.356;2022-10-30T02:58:31;5.23;;;2.30;;
10341;SDS011;5216;54.602;18.356;2022-10-30T03:01:03;7.60;;;2.60;;
10341;SDS011;5216;54.602;18.356;2022-10-30T03:03:30;4.77;;;2.13;;
10341;SDS011;5216;54.602;18.356;2022-10-30T03:05:58;5.43;;;2.60;;
10341;SDS011;5216;54.602;18.356;2022-10-30T03:08:25;6.70;;;2.80;;
10341;SDS011;5216;54.602;18.356;2022-10-30T03:10:51;6.47;;;2.70;;
10341;SDS011;5216;54.602;18.356;2022-10-30T03:13:23;3.50;;;2.43;;
10341;SDS011;5216;54.602;18.356;2022-10-30T03:15:50;5.30;;;2.50;;
10341;SDS011;5216;54.602;18.356;2022-10-30T03:18:16;4.70;;;2.13;;
10341;SDS011;5216;54.602;18.356;2022-10-30T03:20:43;4.73;;;2.10;;
10341;SDS011;5216;54.602;18.356;2022-10-30T03:23:09;5.53;;;2.50;;
10341;SDS011;5216;54.602;18.356;2022-10-30T03:25:36;5.73;;;2.77;;
10341;SDS011;5216;54.602;18.356;2022-10-30T03:28:02;7.20;;;3.03;;
10341;SDS011;5216;54.602;18.356;2022-10-30T03:30:29;8.00;;;3.37;;
10341;SDS011;5216;54.602;18.356;2022-10-30T03:32:55;7.53;;;3.10;;
10341;SDS011;5216;54.602;18.356;2022-10-30T03:35:22;7.03;;;3.10;;
10341;SDS011;5216;54.602;18.356;2022-10-30T03:37:49;4.50;;;2.53;;
10341;SDS011;5216;54.602;18.356;2022-10-30T03:40:15;7.90;;;3.03;;
10341;SDS011;5216;54.602;18.356;2022-10-30T03:42:42;5.90;;;2.80;;
10341;SDS011;5216;54.602;18.356;2022-10-30T03:45:08;4.10;;;2.67;;
10341;SDS011;5216;54.602;18.356;2022-10-30T03:47:38;6.03;;;2.67;;
10341;SDS011;5216;54.602;18.356;2022-10-30T03:50:04;5.93;;;2.80;;
10341;SDS011;5216;54.602;18.356;2022-10-30T03:52:31;6.60;;;2.57;;
10341;SDS011;5216;54.602;18.356;2022-10-30T03:54:57;7.10;;;2.93;;
10341;SDS011;5216;54.602;18.356;2022-10-30T03:57:24;5.90;;;2.93;;
10341;SDS011;5216;54.602;18.356;2022-10-30T03:59:50;7.87;;;2.80;;
10341;SDS011;5216;54.602;18.356;2022-10-30T04:02:17;5.70;;;2.90;;
10341;SDS011;5216;54.602;18.356;2022-10-30T04:04:44;4.67;;;2.67;;
10341;SDS011;5216;54.602;18.356;2022-10-30T04:07:11;5.03;;;2.60;;
10341;SDS011;5216;54.602;18.356;2022-10-30T04:09:37;5.30;;;2.50;;
10341;SDS011;5216;54.602;18.356;2022-10-30T04:12:04;5.30;;;2.60;;
10341;SDS011;5216;54.602;18.356;2022-10-30T04:14:30;5.83;;;2.60;;
10341;SDS011;5216;54.602;18.356;2022-10-30T04:16:57;5.43;;;2.90;;
10341;SDS011;5216;54.602;18.356;2022-10-30T04:19:23;6.23;;;2.53;;
10341;SDS011;5216;54.602;18.356;2022-10-30T04:21:50;6.70;;;2.90;;
10341;SDS011;5216;54.602;18.356;2022-10-30T04:24:16;7.43;;;2.57;;
10341;SDS011;5216;54.602;18.356;2022-10-30T04:26:44;7.07;;;2.63;;
10341;SDS011;5216;54.602;18.356;2022-10-30T04:29:10;7.80;;;2.90;;
10341;SDS011;5216;54.602;18.356;2022-10-30T04:31:36;4.27;;;2.30;;
10341;SDS011;5216;54.602;18.356;2022-10-30T04:34:03;5.20;;;2.40;;
10341;SDS011;5216;54.602;18.356;2022-10-30T04:36:29;5.63;;;2.57;;
10341;SDS011;5216;54.602;18.356;2022-10-30T04:38:59;7.57;;;2.27;;
10341;SDS011;5216;54.602;18.356;2022-10-30T04:41:26;5.13;;;2.47;;
10341;SDS011;5216;54.602;18.356;2022-10-30T04:43:52;6.40;;;2.60;;
10341;SDS011;5216;54.602;18.356;2022-10-30T04:46:19;4.97;;;2.53;;
10341;SDS011;5216;54.602;18.356;2022-10-30T04:48:45;7.53;;;2.50;;
10341;SDS011;5216;54.602;18.356;2022-10-30T04:51:12;6.03;;;2.50;;
10341;SDS011;5216;54.602;18.356;2022-10-30T04:53:39;5.53;;;2.50;;
10341;SDS011;5216;54.602;18.356;2022-10-30T04:56:05;5.83;;;3.10;;
10341;SDS011;5216;54.602;18.356;2022-10-30T04:58:32;7.40;;;2.70;;
10341;SDS011;5216;54.602;18.356;2022-10-30T05:00:59;4.93;;;2.40;;
10341;SDS011;5216;54.602;18.356;2022-10-30T05:03:28;5.50;;;2.90;;
10341;SDS011;5216;54.602;18.356;2022-10-30T05:06:02;5.43;;;2.50;;
10341;SDS011;5216;54.602;18.356;2022-10-30T05:08:29;5.63;;;2.47;;
10341;SDS011;5216;54.602;18.356;2022-10-30T05:10:56;4.63;;;2.47;;
10341;SDS011;5216;54.602;18.356;2022-10-30T05:13:22;5.90;;;2.40;;
10341;SDS011;5216;54.602;18.356;2022-10-30T05:15:49;4.37;;;2.20;;
10341;SDS011;5216;54.602;18.356;2022-10-30T05:18:15;4.93;;;2.43;;
10341;SDS011;5216;54.602;18.356;2022-10-30T05:20:42;5.70;;;2.40;;
10341;SDS011;5216;54.602;18.356;2022-10-30T05:23:08;5.97;;;2.17;;
10341;SDS011;5216;54.602;18.356;2022-10-30T05:25:35;5.17;;;2.13;;
10341;SDS011;5216;54.602;18.356;2022-10-30T05:28:02;3.63;;;2.10;;
10341;SDS011;5216;54.602;18.356;2022-10-30T05:30:29;4.83;;;2.27;;
10341;SDS011;5216;54.602;18.356;2022-10-30T05:32:57;5.77;;;2.57;;
10341;SDS011;5216;54.602;18.356;2022-10-30T05:35:24;5.17;;;2.50;;
10341;SDS011;5216;54.602;18.356;2022-10-30T05:37:50;5.93;;;2.70;;
10341;SDS011;5216;54.602;18.356;2022-10-30T05:40:17;5.30;;;2.77;;
10341;SDS011;5216;54.602;18.356;2022-10-30T05:42:44;5.63;;;3.30;;
10341;SDS011;5216;54.602;18.356;2022-10-30T05:45:11;6.07;;;3.27;;
10341;SDS011;5216;54.602;18.356;2022-10-30T05:47:37;7.37;;;3.80;;
10341;SDS011;5216;54.602;18.356;2022-10-30T05:50:04;8.87;;;4.17;;
10341;SDS011;5216;54.602;18.356;2022-10-30T05:52:30;6.90;;;3.70;;
10341;SDS011;5216;54.602;18.356;2022-10-30T05:54:57;6.97;;;4.10;;
10341;SDS011;5216;54.602;18.356;2022-10-30T05:57:26;6.37;;;4.03;;
10341;SDS011;5216;54.602;18.356;2022-10-30T05:59:52;7.40;;;4.77;;
10341;SDS011;5216;54.602;18.356;2022-10-30T06:02:19;6.67;;;4.97;;
10341;SDS011;5216;54.602;18.356;2022-10-30T06:04:45;9.43;;;4.43;;
10341;SDS011;5216;54.602;18.356;2022-10-30T06:07:12;8.03;;;4.77;;
10341;SDS011;5216;54.602;18.356;2022-10-30T06:09:38;8.27;;;4.90;;
10341;SDS011;5216;54.602;18.356;2022-10-30T06:12:05;8.87;;;5.00;;
10341;SDS011;5216;54.602;18.356;2022-10-30T06:14:32;11.63;;;7.63;;
10341;SDS011;5216;54.602;18.356;2022-10-30T06:16:58;8.57;;;5.73;;
10341;SDS011;5216;54.602;18.356;2022-10-30T06:19:25;8.83;;;4.93;;
10341;SDS011;5216;54.602;18.356;2022-10-30T06:21:51;7.60;;;4.83;;
10341;SDS011;5216;54.602;18.356;2022-10-30T06:24:20;7.43;;;4.83;;
10341;SDS011;5216;54.602;18.356;2022-10-30T06:26:46;7.60;;;4.23;;
10341;SDS011;5216;54.602;18.356;2022-10-30T06:29:13;10.60;;;4.33;;
10341;SDS011;5216;54.602;18.356;2022-10-30T06:31:40;6.80;;;3.90;;
10341;SDS011;5216;54.602;18.356;2022-10-30T06:34:06;6.40;;;4.00;;
10341;SDS011;5216;54.602;18.356;2022-10-30T06:36:33;25.07;;;20.60;;
10341;SDS011;5216;54.602;18.356;2022-10-30T06:38:59;6.47;;;3.90;;
10341;SDS011;5216;54.602;18.356;2022-10-30T06:41:26;6.30;;;3.70;;
10341;SDS011;5216;54.602;18.356;2022-10-30T06:43:55;8.40;;;4.93;;
10341;SDS011;5216;54.602;18.356;2022-10-30T06:46:22;8.53;;;4.07;;
10341;SDS011;5216;54.602;18.356;2022-10-30T06:48:55;6.63;;;4.00;;
10341;SDS011;5216;54.602;18.356;2022-10-30T06:51:22;5.60;;;3.53;;
10341;SDS011;5216;54.602;18.356;2022-10-30T06:53:49;8.97;;;3.70;;
10341;SDS011;5216;54.602;18.356;2022-10-30T06:56:15;7.63;;;3.37;;
10341;SDS011;5216;54.602;18.356;2022-10-30T06:58:42;6.17;;;3.30;;
10341;SDS011;5216;54.602;18.356;2022-10-30T07:01:09;6.20;;;3.20;;
10341;SDS011;5216;54.602;18.356;2022-10-30T07:03:36;7.17;;;3.57;;
10341;SDS011;5216;54.602;18.356;2022-10-30T07:06:02;8.20;;;3.73;;
10341;SDS011;5216;54.602;18.356;2022-10-30T07:08:29;6.27;;;4.17;;
10341;SDS011;5216;54.602;18.356;2022-10-30T07:10:56;7.93;;;5.13;;
10341;SDS011;5216;54.602;18.356;2022-10-30T07:13:23;8.30;;;4.20;;
10341;SDS011;5216;54.602;18.356;2022-10-30T07:15:50;10.93;;;4.40;;
10341;SDS011;5216;54.602;18.356;2022-10-30T07:18:16;7.83;;;4.20;;
10341;SDS011;5216;54.602;18.356;2022-10-30T07:20:43;8.03;;;4.20;;
10341;SDS011;5216;54.602;18.356;2022-10-30T07:23:09;7.87;;;4.00;;
10341;SDS011;5216;54.602;18.356;2022-10-30T07:25:36;6.60;;;4.53;;
10341;SDS011;5216;54.602;18.356;2022-10-30T07:28:02;8.10;;;5.93;;
10341;SDS011;5216;54.602;18.356;2022-10-30T07:30:29;7.40;;;4.23;;
10341;SDS011;5216;54.602;18.356;2022-10-30T07:32:59;7.27;;;3.97;;
10341;SDS011;5216;54.602;18.356;2022-10-30T07:35:27;5.53;;;4.00;;
10341;SDS011;5216;54.602;18.356;2022-10-30T07:37:53;7.23;;;4.57;;
10341;SDS011;5216;54.602;18.356;2022-10-30T07:40:20;7.00;;;4.87;;
10341;SDS011;5216;54.602;18.356;2022-10-30T07:42:47;10.33;;;4.40;;
10341;SDS011;5216;54.602;18.356;2022-10-30T07:45:14;6.07;;;3.77;;
10341;SDS011;5216;54.602;18.356;2022-10-30T07:47:41;7.97;;;5.57;;
10341;SDS011;5216;54.602;18.356;2022-10-30T07:50:08;7.80;;;4.30;;
10341;SDS011;5216;54.602;18.356;2022-10-30T07:52:35;5.30;;;3.10;;
10341;SDS011;5216;54.602;18.356;2022-10-30T07:55:02;9.43;;;3.30;;
10341;SDS011;5216;54.602;18.356;2022-10-30T07:57:38;9.23;;;5.43;;
10341;SDS011;5216;54.602;18.356;2022-10-30T08:00:06;10.77;;;5.67;;
10341;SDS011;5216;54.602;18.356;2022-10-30T08:02:33;5.60;;;3.20;;
10341;SDS011;5216;54.602;18.356;2022-10-30T08:05:01;5.70;;;3.33;;
10341;SDS011;5216;54.602;18.356;2022-10-30T08:07:30;9.37;;;3.27;;
10341;SDS011;5216;54.602;18.356;2022-10-30T08:09:57;5.60;;;2.93;;
10341;SDS011;5216;54.602;18.356;2022-10-30T08:12:25;6.77;;;3.27;;
10341;SDS011;5216;54.602;18.356;2022-10-30T08:14:52;7.23;;;3.37;;
10341;SDS011;5216;54.602;18.356;2022-10-30T08:17:19;11.47;;;9.13;;
10341;SDS011;5216;54.602;18.356;2022-10-30T08:19:46;9.40;;;4.77;;
10341;SDS011;5216;54.602;18.356;2022-10-30T08:22:13;7.57;;;3.87;;
10341;SDS011;5216;54.602;18.356;2022-10-30T08:24:39;8.13;;;3.80;;
10341;SDS011;5216;54.602;18.356;2022-10-30T08:27:06;6.70;;;3.13;;
10341;SDS011;5216;54.602;18.356;2022-10-30T08:29:33;6.57;;;3.60;;
10341;SDS011;5216;54.602;18.356;2022-10-30T08:32:00;6.13;;;3.73;;
10341;SDS011;5216;54.602;18.356;2022-10-30T08:34:26;4.83;;;2.90;;
10341;SDS011;5216;54.602;18.356;2022-10-30T08:36:53;5.37;;;3.00;;
10341;SDS011;5216;54.602;18.356;2022-10-30T08:39:20;6.20;;;2.73;;
10341;SDS011;5216;54.602;18.356;2022-10-30T08:41:47;5.73;;;3.10;;
10341;SDS011;5216;54.602;18.356;2022-10-30T08:44:14;5.00;;;2.83;;
10341;SDS011;5216;54.602;18.356;2022-10-30T08:46:40;6.63;;;3.73;;
10341;SDS011;5216;54.602;18.356;2022-10-30T08:49:07;4.33;;;2.70;;
10341;SDS011;5216;54.602;18.356;2022-10-30T08:51:34;5.70;;;2.90;;
10341;SDS011;5216;54.602;18.356;2022-10-30T08:54:00;7.03;;;2.93;;
10341;SDS011;5216;54.602;18.356;2022-10-30T08:56:27;4.47;;;3.17;;
10341;SDS011;5216;54.602;18.356;2022-10-30T08:58:53;4.57;;;3.40;;
10341;SDS011;5216;54.602;18.356;2022-10-30T09:01:20;7.13;;;3.07;;
10341;SDS011;5216;54.602;18.356;2022-10-30T09:03:47;5.03;;;3.20;;
10341;SDS011;5216;54.602;18.356;2022-10-30T09:06:14;4.93;;;3.00;;
10341;SDS011;5216;54.602;18.356;2022-10-30T09:08:41;5.93;;;3.33;;
10341;SDS011;5216;54.602;18.356;2022-10-30T09:11:09;5.03;;;2.90;;
10341;SDS011;5216;54.602;18.356;2022-10-30T09:13:35;5.13;;;3.13;;
10341;SDS011;5216;54.602;18.356;2022-10-30T09:16:02;7.00;;;3.37;;
10341;SDS011;5216;54.602;18.356;2022-10-30T09:18:29;4.90;;;2.73;;
10341;SDS011;5216;54.602;18.356;2022-10-30T09:20:56;10.90;;;7.37;;
10341;SDS011;5216;54.602;18.356;2022-10-30T09:23:29;6.70;;;3.30;;
10341;SDS011;5216;54.602;18.356;2022-10-30T09:25:56;6.63;;;3.17;;
10341;SDS011;5216;54.602;18.356;2022-10-30T09:28:23;16.13;;;14.43;;
10341;SDS011;5216;54.602;18.356;2022-10-30T09:30:50;6.17;;;3.13;;
10341;SDS011;5216;54.602;18.356;2022-10-30T09:33:21;5.47;;;2.67;;
10341;SDS011;5216;54.602;18.356;2022-10-30T09:35:48;4.53;;;2.47;;
10341;SDS011;5216;54.602;18.356;2022-10-30T09:38:15;4.47;;;2.63;;
10341;SDS011;5216;54.602;18.356;2022-10-30T09:45:51;5.00;;;2.60;;
10341;SDS011;5216;54.602;18.356;2022-10-30T09:48:38;6.03;;;3.33;;
10341;SDS011;5216;54.602;18.356;2022-10-30T09:56:33;8.30;;;4.93;;
10341;SDS011;5216;54.602;18.356;2022-10-30T10:01:30;5.00;;;2.57;;
10341;SDS011;5216;54.602;18.356;2022-10-30T10:04:00;14.93;;;11.03;;
10341;SDS011;5216;54.602;18.356;2022-10-30T10:06:27;5.47;;;2.80;;
10341;SDS011;5216;54.602;18.356;2022-10-30T10:09:02;6.40;;;2.77;;
10341;SDS011;5216;54.602;18.356;2022-10-30T10:11:37;6.37;;;3.10;;
10341;SDS011;5216;54.602;18.356;2022-10-30T10:14:13;5.03;;;3.03;;
10341;SDS011;5216;54.602;18.356;2022-10-30T10:16:40;6.27;;;3.10;;
10341;SDS011;5216;54.602;18.356;2022-10-30T10:19:17;3.93;;;2.60;;
10341;SDS011;5216;54.602;18.356;2022-10-30T10:21:57;4.77;;;2.97;;
10341;SDS011;5216;54.602;18.356;2022-10-30T10:24:37;6.20;;;3.40;;
10341;SDS011;5216;54.602;18.356;2022-10-30T10:29:59;7.17;;;3.00;;
10341;SDS011;5216;54.602;18.356;2022-10-30T10:32:33;7.30;;;3.47;;
10341;SDS011;5216;54.602;18.356;2022-10-30T10:37:55;4.63;;;2.87;;
10341;SDS011;5216;54.602;18.356;2022-10-30T10:40:39;9.37;;;3.10;;
10341;SDS011;5216;54.602;18.356;2022-10-30T10:51:00;4.67;;;2.87;;
10341;SDS011;5216;54.602;18.356;2022-10-30T10:56:30;6.83;;;3.20;;
10341;SDS011;5216;54.602;18.356;2022-10-30T11:04:29;5.30;;;2.60;;
10341;SDS011;5216;54.602;18.356;2022-10-30T11:06:57;7.03;;;3.20;;
10341;SDS011;5216;54.602;18.356;2022-10-30T11:09:28;5.97;;;2.60;;
10341;SDS011;5216;54.602;18.356;2022-10-30T11:11:54;5.20;;;3.00;;
10341;SDS011;5216;54.602;18.356;2022-10-30T11:14:22;4.83;;;3.33;;
10341;SDS011;5216;54.602;18.356;2022-10-30T11:16:52;5.03;;;3.00;;
10341;SDS011;5216;54.602;18.356;2022-10-30T11:19:20;5.30;;;2.83;;
10341;SDS011;5216;54.602;18.356;2022-10-30T11:21:48;7.33;;;2.70;;
10341;SDS011;5216;54.602;18.356;2022-10-30T11:26:52;4.13;;;2.80;;
10341;SDS011;5216;54.602;18.356;2022-10-30T11:29:23;14.17;;;9.20;;
10341;SDS011;5216;54.602;18.356;2022-10-30T11:32:03;5.40;;;3.10;;
10341;SDS011;5216;54.602;18.356;2022-10-30T11:34:32;10.83;;;7.27;;
10341;SDS011;5216;54.602;18.356;2022-10-30T11:36:59;5.97;;;3.40;;
10341;SDS011;5216;54.602;18.356;2022-10-30T11:39:26;5.40;;;2.50;;
10341;SDS011;5216;54.602;18.356;2022-10-30T11:44:25;5.40;;;2.40;;
10341;SDS011;5216;54.602;18.356;2022-10-30T11:46:53;4.37;;;2.50;;
10341;SDS011;5216;54.602;18.356;2022-10-30T11:52:06;3.87;;;2.40;;
10341;SDS011;5216;54.602;18.356;2022-10-30T11:54:35;5.43;;;2.70;;
10341;SDS011;5216;54.602;18.356;2022-10-30T11:57:02;6.40;;;2.90;;
10341;SDS011;5216;54.602;18.356;2022-10-30T11:59:29;4.17;;;2.53;;
10341;SDS011;5216;54.602;18.356;2022-10-30T12:02:00;7.07;;;3.17;;
10341;SDS011;5216;54.602;18.356;2022-10-30T12:04:28;3.83;;;2.40;;
10341;SDS011;5216;54.602;18.356;2022-10-30T12:07:08;5.17;;;2.50;;
10341;SDS011;5216;54.602;18.356;2022-10-30T12:09:42;6.93;;;3.23;;
10341;SDS011;5216;54.602;18.356;2022-10-30T12:17:40;7.90;;;3.90;;
10341;SDS011;5216;54.602;18.356;2022-10-30T12:20:16;5.47;;;3.83;;
10341;SDS011;5216;54.602;18.356;2022-10-30T12:22:44;6.57;;;3.20;;
10341;SDS011;5216;54.602;18.356;2022-10-30T12:25:19;6.07;;;3.73;;
10341;SDS011;5216;54.602;18.356;2022-10-30T12:27:47;7.57;;;4.57;;
10341;SDS011;5216;54.602;18.356;2022-10-30T12:30:15;7.20;;;3.97;;
10341;SDS011;5216;54.602;18.356;2022-10-30T12:37:52;5.33;;;3.10;;
10341;SDS011;5216;54.602;18.356;2022-10-30T12:40:29;5.07;;;3.07;;
10341;SDS011;5216;54.602;18.356;2022-10-30T12:43:02;6.37;;;4.00;;
10341;SDS011;5216;54.602;18.356;2022-10-30T12:45:44;9.13;;;4.20;;
10341;SDS011;5216;54.602;18.356;2022-10-30T12:48:14;5.60;;;3.27;;
10341;SDS011;5216;54.602;18.356;2022-10-30T12:53:34;5.23;;;3.70;;
10341;SDS011;5216;54.602;18.356;2022-10-30T12:56:05;6.33;;;3.73;;
10341;SDS011;5216;54.602;18.356;2022-10-30T12:58:42;6.93;;;4.43;;
10341;SDS011;5216;54.602;18.356;2022-10-30T13:03:47;15.50;;;11.73;;
10341;SDS011;5216;54.602;18.356;2022-10-30T13:06:16;11.40;;;9.23;;
10341;SDS011;5216;54.602;18.356;2022-10-30T13:08:58;11.80;;;9.37;;
10341;SDS011;5216;54.602;18.356;2022-10-30T13:14:18;9.70;;;6.53;;
10341;SDS011;5216;54.602;18.356;2022-10-30T13:16:46;8.77;;;5.90;;
10341;SDS011;5216;54.602;18.356;2022-10-30T13:19:12;29.93;;;26.10;;
10341;SDS011;5216;54.602;18.356;2022-10-30T13:21:48;13.90;;;9.47;;
10341;SDS011;5216;54.602;18.356;2022-10-30T13:24:22;7.37;;;5.57;;
10341;SDS011;5216;54.602;18.356;2022-10-30T13:34:25;9.93;;;6.27;;
10341;SDS011;5216;54.602;18.356;2022-10-30T13:37:07;12.73;;;8.20;;
10341;SDS011;5216;54.602;18.356;2022-10-30T13:39:42;11.03;;;6.33;;
10341;SDS011;5216;54.602;18.356;2022-10-30T13:47:47;8.90;;;6.87;;
10341;SDS011;5216;54.602;18.356;2022-10-30T13:50:27;8.53;;;6.43;;
10341;SDS011;5216;54.602;18.356;2022-10-30T13:52:57;11.30;;;6.57;;
10341;SDS011;5216;54.602;18.356;2022-10-30T13:55:30;7.87;;;5.80;;
10341;SDS011;5216;54.602;18.356;2022-10-30T14:05:57;9.80;;;7.73;;
10341;SDS011;5216;54.602;18.356;2022-10-30T14:11:00;13.70;;;9.33;;
10341;SDS011;5216;54.602;18.356;2022-10-30T14:13:28;11.60;;;8.40;;
10341;SDS011;5216;54.602;18.356;2022-10-30T14:16:05;8.13;;;6.10;;
10341;SDS011;5216;54.602;18.356;2022-10-30T14:18:42;8.23;;;5.60;;
10341;SDS011;5216;54.602;18.356;2022-10-30T14:26:53;7.37;;;5.57;;
10341;SDS011;5216;54.602;18.356;2022-10-30T14:29:36;5.83;;;4.93;;
10341;SDS011;5216;54.602;18.356;2022-10-30T14:34:41;6.17;;;4.07;;
10341;SDS011;5216;54.602;18.356;2022-10-30T14:37:08;8.20;;;4.60;;
10341;SDS011;5216;54.602;18.356;2022-10-30T14:39:42;8.73;;;4.97;;
10341;SDS011;5216;54.602;18.356;2022-10-30T14:49:52;7.30;;;5.20;;
10341;SDS011;5216;54.602;18.356;2022-10-30T14:58:12;6.93;;;4.60;;
10341;SDS011;5216;54.602;18.356;2022-10-30T15:00:40;7.37;;;4.90;;
10341;SDS011;5216;54.602;18.356;2022-10-30T15:05:46;9.30;;;6.43;;
10341;SDS011;5216;54.602;18.356;2022-10-30T15:13:32;7.37;;;5.30;;
10341;SDS011;5216;54.602;18.356;2022-10-30T15:16:06;6.00;;;4.20;;
10341;SDS011;5216;54.602;18.356;2022-10-30T15:18:34;7.43;;;5.53;;
10341;SDS011;5216;54.602;18.356;2022-10-30T15:21:05;9.50;;;7.40;;
10341;SDS011;5216;54.602;18.356;2022-10-30T15:23:33;23.77;;;21.23;;
10341;SDS011;5216;54.602;18.356;2022-10-30T15:26:03;13.57;;;11.27;;
10341;SDS011;5216;54.602;18.356;2022-10-30T15:28:35;18.23;;;14.77;;
10341;SDS011;5216;54.602;18.356;2022-10-30T15:33:33;28.07;;;22.83;;
10341;SDS011;5216;54.602;18.356;2022-10-30T15:36:14;32.27;;;25.87;;
10341;SDS011;5216;54.602;18.356;2022-10-30T15:38:42;18.20;;;14.90;;
10341;SDS011;5216;54.602;18.356;2022-10-30T15:41:09;21.70;;;17.60;;
10341;SDS011;5216;54.602;18.356;2022-10-30T15:43:38;27.00;;;21.83;;
10341;SDS011;5216;54.602;18.356;2022-10-30T15:46:09;21.23;;;17.43;;
10341;SDS011;5216;54.602;18.356;2022-10-30T15:48:38;12.20;;;10.90;;
10341;SDS011;5216;54.602;18.356;2022-10-30T15:51:14;15.00;;;11.83;;
10341;SDS011;5216;54.602;18.356;2022-10-30T15:53:44;15.53;;;12.93;;
10341;SDS011;5216;54.602;18.356;2022-10-30T15:56:16;13.27;;;10.27;;
10341;SDS011;5216;54.602;18.356;2022-10-30T15:58:52;11.10;;;8.93;;
10341;SDS011;5216;54.602;18.356;2022-10-30T16:01:25;12.00;;;10.27;;
10341;SDS011;5216;54.602;18.356;2022-10-30T16:03:53;16.63;;;14.83;;
10341;SDS011;5216;54.602;18.356;2022-10-30T16:06:22;16.50;;;14.40;;
10341;SDS011;5216;54.602;18.356;2022-10-30T16:08:50;35.17;;;31.40;;
10341;SDS011;5216;54.602;18.356;2022-10-30T16:11:18;25.40;;;21.77;;
10341;SDS011;5216;54.602;18.356;2022-10-30T16:13:47;26.13;;;20.07;;
10341;SDS011;5216;54.602;18.356;2022-10-30T16:16:23;24.20;;;18.13;;
10341;SDS011;5216;54.602;18.356;2022-10-30T16:18:58;22.90;;;17.53;;
10341;SDS011;5216;54.602;18.356;2022-10-30T16:21:27;21.07;;;16.77;;
10341;SDS011;5216;54.602;18.356;2022-10-30T16:23:58;29.13;;;17.33;;
10341;SDS011;5216;54.602;18.356;2022-10-30T16:26:33;33.47;;;21.40;;
10341;SDS011;5216;54.602;18.356;2022-10-30T16:31:40;20.27;;;14.07;;
10341;SDS011;5216;54.602;18.356;2022-10-30T16:34:10;15.00;;;12.67;;
10341;SDS011;5216;54.602;18.356;2022-10-30T16:36:41;15.83;;;12.63;;
10341;SDS011;5216;54.602;18.356;2022-10-30T16:39:12;21.80;;;14.83;;
10341;SDS011;5216;54.602;18.356;2022-10-30T16:41:42;25.87;;;16.10;;
10341;SDS011;5216;54.602;18.356;2022-10-30T16:46:38;19.07;;;15.37;;
10341;SDS011;5216;54.602;18.356;2022-10-30T16:49:29;32.43;;;26.97;;
10341;SDS011;5216;54.602;18.356;2022-10-30T16:52:16;42.77;;;36.77;;
10341;SDS011;5216;54.602;18.356;2022-10-30T16:54:50;53.97;;;41.17;;
10341;SDS011;5216;54.602;18.356;2022-10-30T16:57:21;45.47;;;33.03;;
10341;SDS011;5216;54.602;18.356;2022-10-30T16:59:49;43.03;;;30.17;;
10341;SDS011;5216;54.602;18.356;2022-10-30T17:02:21;34.93;;;24.70;;
10341;SDS011;5216;54.602;18.356;2022-10-30T17:04:50;38.60;;;27.37;;
10341;SDS011;5216;54.602;18.356;2022-10-30T17:07:24;41.60;;;31.53;;